Terminal Aerodrome Forecast
Issued by NWS North Platte, NE

Home | Current Version | Previous Version | Graphics & Text | Print | Product List | Glossary On
Versions: 1 2 3 4 5 6 7 8 9 10 11 12 13
048
FTUS43 KLBF 242326
TAFVTN
TAF
KVTN 242326Z 2500/2524 33010G17KT P6SM SCT150
     FM250400 36007KT P6SM FEW250
     FM251000 VRB03KT P6SM FEW250
     FM252000 35005KT P6SM FEW200=

USA.gov is the U.S. government's official web portal to all federal, state and local government web resources and services.